createdAt,value
2022-09-01T00:00:07.998Z,96.78
2022-09-01T00:02:37.669Z,96.82
2022-09-01T00:05:08.052Z,96.71
2022-09-01T00:07:37.193Z,96.44
2022-09-01T00:10:08.926Z,96.77
2022-09-01T00:12:38.675Z,96.74
2022-09-01T00:15:12.023Z,95.90
2022-09-01T00:17:41.073Z,96.86
2022-09-01T00:20:11.361Z,97.85
2022-09-01T00:22:40.835Z,97.81
2022-09-01T00:25:10.670Z,97.58
2022-09-01T00:27:39.751Z,98.91
2022-09-01T00:30:11.795Z,96.68
2022-09-01T00:32:40.931Z,95.79
2022-09-01T00:35:10.664Z,96.82
2022-09-01T00:37:39.725Z,96.09
2022-09-01T00:40:11.591Z,97.76
2022-09-01T00:42:41.322Z,97.62
2022-09-01T00:45:13.378Z,96.96
2022-09-01T00:47:42.842Z,96.58
2022-09-01T00:50:13.596Z,96.61
2022-09-01T00:52:46.982Z,96.76
2022-09-01T00:55:19.862Z,97.05
2022-09-01T00:57:50.268Z,98.60
2022-09-01T01:00:23.422Z,99.47
2022-09-01T01:02:55.858Z,97.94
2022-09-01T01:05:27.836Z,98.66
2022-09-01T01:07:57.919Z,98.51
2022-09-01T01:10:29.614Z,98.98
2022-09-01T01:13:01.941Z,99.18
2022-09-01T01:15:32.624Z,100.00
2022-09-01T01:18:01.955Z,100.00
2022-09-01T01:20:51.998Z,100.00
2022-09-01T01:23:29.701Z,100.00
2022-09-01T01:26:01.732Z,100.00
2022-09-01T01:28:33.713Z,99.03
2022-09-01T01:31:11.943Z,98.55
2022-09-01T01:33:44.505Z,100.00
2022-09-01T01:36:17.887Z,98.70
2022-09-01T01:38:50.293Z,100.00
2022-09-01T01:41:21.942Z,100.00
2022-09-01T01:43:51.042Z,100.00
2022-09-01T01:46:21.301Z,100.00
2022-09-01T01:48:53.738Z,100.00
2022-09-01T01:51:26.773Z,99.70
2022-09-01T01:53:56.948Z,100.00
2022-09-01T01:56:28.007Z,100.00
2022-09-01T01:58:58.878Z,100.00
2022-09-01T02:01:32.081Z,100.00
2022-09-01T02:04:04.323Z,100.00
2022-09-01T02:06:36.905Z,100.00
2022-09-01T02:09:07.201Z,100.00
2022-09-01T02:11:37.998Z,100.00
2022-09-01T02:14:09.409Z,100.00
2022-09-01T02:16:39.038Z,100.00
2022-09-01T02:19:12.228Z,100.00
2022-09-01T02:21:44.534Z,100.00
2022-09-01T02:24:13.611Z,100.00
2022-09-01T02:26:48.903Z,100.00
2022-09-01T02:29:23.830Z,100.00
2022-09-01T02:31:54.603Z,100.00
2022-09-01T02:34:25.866Z,100.00
2022-09-01T02:36:58.176Z,100.00
2022-09-01T02:39:30.185Z,100.00
2022-09-01T02:42:01.390Z,100.00
2022-09-01T02:44:32.629Z,100.00
2022-09-01T02:47:05.554Z,100.00
2022-09-01T02:49:36.018Z,100.00
2022-09-01T02:52:06.266Z,100.00
2022-09-01T02:54:36.271Z,100.00
2022-09-01T02:57:09.027Z,100.00
2022-09-01T02:59:43.154Z,100.00
2022-09-01T03:02:12.910Z,100.00
2022-09-01T03:04:42.047Z,100.00
2022-09-01T03:07:13.745Z,100.00
2022-09-01T03:09:43.681Z,100.00
2022-09-01T03:12:14.076Z,100.00
2022-09-01T03:14:43.309Z,100.00
2022-09-01T03:17:13.993Z,100.00
2022-09-01T03:19:45.161Z,100.00
2022-09-01T03:22:14.385Z,100.00
2022-09-01T03:24:43.987Z,100.00
2022-09-01T03:27:14.622Z,100.00
2022-09-01T03:29:43.928Z,100.00
2022-09-01T03:32:13.042Z,100.00
2022-09-01T03:34:42.415Z,100.00
2022-09-01T03:37:12.196Z,100.00
2022-09-01T03:39:41.433Z,100.00
2022-09-01T03:42:12.681Z,100.00
2022-09-01T03:44:45.279Z,100.00
2022-09-01T03:47:17.009Z,100.00
2022-09-01T03:49:49.552Z,100.00
2022-09-01T03:52:19.033Z,100.00
2022-09-01T03:54:53.273Z,100.00
2022-09-01T03:57:23.237Z,100.00
2022-09-01T03:59:55.199Z,100.00
2022-09-01T04:02:29.467Z,100.00
2022-09-01T04:05:00.569Z,100.00
2022-09-01T04:07:30.667Z,100.00
2022-09-01T04:09:59.661Z,100.00
2022-09-01T04:12:29.884Z,100.00
2022-09-01T04:15:01.814Z,100.00
2022-09-01T04:17:48.761Z,100.00
2022-09-01T04:20:20.239Z,100.00
2022-09-01T04:22:52.610Z,100.00
2022-09-01T04:25:23.229Z,100.00
2022-09-01T04:27:55.404Z,100.00
2022-09-01T04:30:32.406Z,100.00
2022-09-01T04:33:02.078Z,100.00
2022-09-01T04:35:32.606Z,100.00
2022-09-01T04:38:08.366Z,100.00
2022-09-01T04:40:40.282Z,100.00
2022-09-01T04:43:09.959Z,100.00
2022-09-01T04:45:40.909Z,100.00
2022-09-01T04:48:10.973Z,100.00
2022-09-01T04:50:42.073Z,100.00
2022-09-01T04:53:20.293Z,100.00
2022-09-01T04:55:55.194Z,100.00
2022-09-01T04:58:28.958Z,100.00
2022-09-01T05:01:00.411Z,100.00
2022-09-01T05:03:31.953Z,100.00
2022-09-01T05:06:18.350Z,100.00
2022-09-01T05:09:00.360Z,100.00
2022-09-01T05:11:45.508Z,100.00
2022-09-01T05:14:25.942Z,100.00
2022-09-01T05:16:59.464Z,100.00
2022-09-01T05:19:30.842Z,100.00
2022-09-01T05:22:02.239Z,100.00
2022-09-01T05:24:38.538Z,100.00
2022-09-01T05:27:12.330Z,100.00
2022-09-01T05:29:45.790Z,100.00
2022-09-01T05:32:17.920Z,100.00
2022-09-01T05:34:47.789Z,100.00
2022-09-01T05:37:18.340Z,100.00
2022-09-01T05:39:49.148Z,100.00
2022-09-01T05:42:19.502Z,99.61
2022-09-01T05:44:52.698Z,93.98
2022-09-01T05:47:26.908Z,90.31
2022-09-01T05:49:58.847Z,90.38
2022-09-01T05:52:35.572Z,91.80
2022-09-01T05:55:09.008Z,92.41
2022-09-01T05:57:42.188Z,91.56
2022-09-01T06:00:13.226Z,90.06
2022-09-01T06:02:45.083Z,85.82
2022-09-01T06:05:19.891Z,82.35
2022-09-01T06:07:51.005Z,81.99
2022-09-01T06:10:20.328Z,79.93
2022-09-01T06:12:50.486Z,78.74
2022-09-01T06:15:24.807Z,77.46
2022-09-01T06:17:57.723Z,76.37
2022-09-01T06:20:27.536Z,80.51
2022-09-01T06:22:56.615Z,81.71
2022-09-01T06:25:30.539Z,83.91
2022-09-01T06:28:00.872Z,84.97
2022-09-01T06:30:30.227Z,86.76
2022-09-01T06:33:09.389Z,87.66
2022-09-01T06:35:40.490Z,86.29
2022-09-01T06:38:10.414Z,86.95
2022-09-01T06:40:42.950Z,86.29
2022-09-01T06:43:16.602Z,85.75
2022-09-01T06:45:54.391Z,80.36
2022-09-01T06:48:26.946Z,77.79
2022-09-01T06:51:18.368Z,74.74
2022-09-01T06:53:53.161Z,73.57
2022-09-01T06:56:24.136Z,71.53
2022-09-01T06:58:55.174Z,71.07
2022-09-01T07:01:27.492Z,71.82
2022-09-01T07:03:59.493Z,70.18
2022-09-01T07:06:59.363Z,69.80
2022-09-01T07:09:47.619Z,68.54
2022-09-01T07:12:31.944Z,67.52
2022-09-01T07:17:52.521Z,68.69
2022-09-01T07:21:36.133Z,68.89
2022-09-01T07:23:18.035Z,66.67
2022-09-01T07:26:01.044Z,65.58
2022-09-01T07:28:42.478Z,63.70
2022-09-01T07:39:55.679Z,63.65
2022-09-01T07:45:59.195Z,62.24
2022-09-01T07:49:02.613Z,62.12
2022-09-01T07:51:38.095Z,61.96
2022-09-01T07:54:13.764Z,60.83
2022-09-01T07:56:43.177Z,62.12
2022-09-01T07:59:15.578Z,60.33
2022-09-01T08:02:11.270Z,58.69
2022-09-01T08:04:40.898Z,56.55
2022-09-01T08:07:18.733Z,58.56
2022-09-01T08:09:49.409Z,56.48
2022-09-01T08:12:18.607Z,55.59
2022-09-01T08:15:12.715Z,53.60
2022-09-01T08:17:51.608Z,54.91
2022-09-01T08:20:21.142Z,53.51
2022-09-01T08:23:03.446Z,53.76
2022-09-01T08:25:38.065Z,52.50
2022-09-01T08:28:08.039Z,53.72
2022-09-01T08:30:39.428Z,52.96
2022-09-01T08:33:11.728Z,52.63
2022-09-01T08:35:48.714Z,51.82
2022-09-01T08:38:19.815Z,49.20
2022-09-01T08:40:57.332Z,49.95
2022-09-01T08:43:51.534Z,50.55
2022-09-01T08:46:27.121Z,52.00
2022-09-01T08:52:15.338Z,51.94
2022-09-01T08:54:49.804Z,48.87
2022-09-01T08:57:24.506Z,47.25
2022-09-01T09:00:33.378Z,45.34
2022-09-01T09:03:20.466Z,45.86
2022-09-01T09:06:08.612Z,45.47
2022-09-01T09:08:53.422Z,47.92
2022-09-01T09:11:51.450Z,47.40
2022-09-01T09:14:34.944Z,45.77
2022-09-01T09:17:04.889Z,46.43
2022-09-01T09:19:36.483Z,46.62
2022-09-01T09:22:11.369Z,46.29
2022-09-01T09:24:50.573Z,47.87
2022-09-01T09:27:22.913Z,46.85
2022-09-01T09:29:56.596Z,46.32
2022-09-01T09:33:11.696Z,45.51
2022-09-01T09:35:37.219Z,45.20
2022-09-01T09:38:28.574Z,45.01
2022-09-01T09:43:58.738Z,44.07
2022-09-01T09:46:37.073Z,42.26
2022-09-01T09:49:19.276Z,44.65
2022-09-01T09:51:58.777Z,45.05
2022-09-01T09:54:30.926Z,47.86
2022-09-01T09:57:13.406Z,47.57
2022-09-01T09:59:58.722Z,49.16
2022-09-01T10:02:34.500Z,49.71
2022-09-01T10:05:24.713Z,49.98
2022-09-01T10:07:54.329Z,48.44
2022-09-01T10:10:37.630Z,50.51
2022-09-01T10:13:11.194Z,50.04
2022-09-01T10:15:42.323Z,45.83
2022-09-01T10:18:28.719Z,44.45
2022-09-01T10:21:01.898Z,41.79
2022-09-01T10:23:34.685Z,41.85
2022-09-01T10:26:09.538Z,43.16
2022-09-01T10:28:49.982Z,40.66
2022-09-01T10:31:21.361Z,40.12
2022-09-01T10:33:52.484Z,38.94
2022-09-01T10:36:24.644Z,38.91
2022-09-01T10:39:00.013Z,40.31
2022-09-01T10:41:53.256Z,40.49
2022-09-01T10:44:34.244Z,38.06
2022-09-01T10:47:13.540Z,38.15
2022-09-01T10:53:01.706Z,37.49
2022-09-01T10:55:38.566Z,36.30
2022-09-01T11:02:27.006Z,36.83
2022-09-01T11:05:16.120Z,38.20
2022-09-01T11:08:03.140Z,37.81
2022-09-01T11:10:50.782Z,38.53
2022-09-01T11:13:47.595Z,38.92
2022-09-01T11:16:50.506Z,39.54
2022-09-01T11:19:33.794Z,37.22
2022-09-01T11:22:26.495Z,39.38
2022-09-01T11:25:40.764Z,39.52
2022-09-01T11:28:45.635Z,39.87
2022-09-01T11:31:30.922Z,39.37
2022-09-01T11:34:23.263Z,37.36
2022-09-01T11:37:01.262Z,38.16
2022-09-01T11:39:34.822Z,38.06
2022-09-01T11:42:12.094Z,37.39
2022-09-01T11:44:46.021Z,37.27
2022-09-01T11:47:20.785Z,39.19
2022-09-01T11:49:53.629Z,37.25
2022-09-01T11:52:25.818Z,36.44
2022-09-01T11:54:55.711Z,37.61
2022-09-01T11:57:28.676Z,36.13
2022-09-01T11:59:59.655Z,34.52
2022-09-01T12:02:33.695Z,35.53
2022-09-01T12:05:27.570Z,36.97
2022-09-01T12:07:57.443Z,36.79
2022-09-01T12:10:33.627Z,39.21
2022-09-01T12:13:05.392Z,38.38
2022-09-01T12:15:40.992Z,38.21
2022-09-01T12:18:22.373Z,40.69
2022-09-01T12:20:53.578Z,38.78
2022-09-01T12:23:27.163Z,37.20
2022-09-01T12:25:58.169Z,40.56
2022-09-01T12:28:31.295Z,36.16
2022-09-01T12:31:03.994Z,35.51
2022-09-01T12:33:38.776Z,35.31
2022-09-01T12:36:22.243Z,38.01
2022-09-01T12:38:52.312Z,37.89
2022-09-01T12:41:42.125Z,35.84
2022-09-01T12:44:32.001Z,36.24
2022-09-01T12:47:03.672Z,36.65
2022-09-01T12:49:50.268Z,34.54
2022-09-01T12:52:25.826Z,34.60
2022-09-01T12:55:10.936Z,35.04
2022-09-01T12:57:45.439Z,39.30
2022-09-01T13:00:20.355Z,38.62
2022-09-01T13:02:51.977Z,37.50
2022-09-01T13:05:31.190Z,35.77
2022-09-01T13:08:03.118Z,34.56
2022-09-01T13:10:36.975Z,34.62
2022-09-01T13:13:07.127Z,33.02
2022-09-01T13:15:38.030Z,32.72
2022-09-01T13:18:07.114Z,33.37
2022-09-01T13:20:37.776Z,38.02
2022-09-01T13:23:06.826Z,38.88
2022-09-01T13:25:36.698Z,36.79
2022-09-01T13:28:07.539Z,36.90
2022-09-01T13:30:36.862Z,38.18
2022-09-01T13:33:23.073Z,34.63
2022-09-01T13:35:54.783Z,34.03
2022-09-01T13:38:24.320Z,34.23
2022-09-01T13:40:53.574Z,35.24
2022-09-01T13:43:27.145Z,34.95
2022-09-01T13:45:56.562Z,35.29
2022-09-01T13:49:02.133Z,34.51
2022-09-01T13:51:27.143Z,37.25
2022-09-01T13:53:56.474Z,40.00
2022-09-01T13:56:25.672Z,41.62
2022-09-01T13:58:55.020Z,42.82
2022-09-01T14:01:24.123Z,43.27
2022-09-01T14:03:56.065Z,40.38
2022-09-01T14:06:30.182Z,37.31
2022-09-01T14:08:59.401Z,36.88
2022-09-01T14:11:29.658Z,37.98
2022-09-01T14:13:59.007Z,35.02
2022-09-01T14:16:28.096Z,36.20
2022-09-01T14:18:57.237Z,35.81
2022-09-01T14:21:27.004Z,35.21
2022-09-01T14:23:58.135Z,34.63
2022-09-01T14:26:27.391Z,34.59
2022-09-01T14:28:57.979Z,34.59
2022-09-01T14:31:26.992Z,36.23
2022-09-01T14:33:56.168Z,34.67
2022-09-01T14:36:27.493Z,35.56
2022-09-01T14:38:58.629Z,35.88
2022-09-01T14:41:28.394Z,36.82
2022-09-01T14:44:02.987Z,35.99
2022-09-01T14:46:34.296Z,36.33
2022-09-01T14:49:04.424Z,36.64
2022-09-01T14:54:26.949Z,40.93
2022-09-01T14:59:45.167Z,37.52
2022-09-01T15:02:14.434Z,36.33
2022-09-01T15:04:43.671Z,35.12
2022-09-01T15:07:13.471Z,36.61
2022-09-01T15:09:43.965Z,37.80
2022-09-01T15:12:13.199Z,41.15
2022-09-01T15:14:42.580Z,39.06
2022-09-01T15:17:11.871Z,39.21
2022-09-01T15:19:40.984Z,40.91
2022-09-01T15:22:12.876Z,43.95
2022-09-01T15:24:43.808Z,44.73
2022-09-01T15:27:12.975Z,42.11
2022-09-01T15:29:45.688Z,40.41
2022-09-01T15:32:27.383Z,40.05
2022-09-01T15:34:57.601Z,40.52
2022-09-01T15:37:27.055Z,40.43
2022-09-01T15:39:57.605Z,40.55
2022-09-01T15:42:27.147Z,41.20
2022-09-01T15:44:56.276Z,40.00
2022-09-01T15:47:26.411Z,39.43
2022-09-01T15:49:55.654Z,41.52
2022-09-01T15:52:24.768Z,42.01
2022-09-01T15:54:54.228Z,40.91
2022-09-01T15:57:24.753Z,41.47
2022-09-01T15:59:53.935Z,41.64
2022-09-01T16:02:27.752Z,42.43
2022-09-01T16:04:56.992Z,40.98
2022-09-01T16:07:26.514Z,41.66
2022-09-01T16:09:57.981Z,42.08
2022-09-01T16:12:28.850Z,42.51
2022-09-01T16:14:57.978Z,40.73
2022-09-01T16:17:38.920Z,41.80
2022-09-01T16:20:11.922Z,44.27
2022-09-01T16:22:45.987Z,45.45
2022-09-01T16:25:20.020Z,45.93
2022-09-01T16:27:51.489Z,45.30
2022-09-01T16:30:27.642Z,45.21
2022-09-01T16:33:00.986Z,45.39
2022-09-01T16:35:44.727Z,45.81
2022-09-01T16:38:27.227Z,45.57
2022-09-01T16:41:04.098Z,46.23
2022-09-01T16:43:43.279Z,46.53
2022-09-01T16:46:19.473Z,46.52
2022-09-01T16:49:00.529Z,47.46
2022-09-01T16:51:38.057Z,46.28
2022-09-01T16:54:17.530Z,47.14
2022-09-01T16:56:54.848Z,47.52
2022-09-01T16:59:35.573Z,48.35
2022-09-01T17:02:16.955Z,48.14
2022-09-01T17:04:49.824Z,47.76
2022-09-01T17:07:29.469Z,48.47
2022-09-01T17:10:04.883Z,48.50
2022-09-01T17:12:42.679Z,48.37
2022-09-01T17:15:18.180Z,48.81
2022-09-01T17:17:55.860Z,49.27
2022-09-01T17:20:28.788Z,49.83
2022-09-01T17:23:00.570Z,49.96
2022-09-01T17:25:32.883Z,49.88
2022-09-01T17:28:06.957Z,50.11
2022-09-01T17:30:45.925Z,51.27
2022-09-01T17:33:25.293Z,51.46
2022-09-01T17:36:10.382Z,51.64
2022-09-01T17:38:54.142Z,52.27
2022-09-01T17:41:36.373Z,52.60
2022-09-01T17:44:16.564Z,52.62
2022-09-01T17:46:54.001Z,52.37
2022-09-01T17:49:29.442Z,53.18
2022-09-01T17:52:09.935Z,52.76
2022-09-01T17:54:46.326Z,54.13
2022-09-01T17:57:24.714Z,53.90
2022-09-01T17:59:58.141Z,54.58
2022-09-01T18:03:02.366Z,54.90
2022-09-01T18:05:39.674Z,54.52
2022-09-01T18:08:30.630Z,54.64
2022-09-01T18:11:03.318Z,54.72
2022-09-01T18:13:56.471Z,55.45
2022-09-01T18:16:29.505Z,55.77
2022-09-01T18:19:05.515Z,56.74
2022-09-01T18:21:38.097Z,57.10
2022-09-01T18:24:16.556Z,57.27
2022-09-01T18:26:48.229Z,57.31
2022-09-01T18:29:18.163Z,56.90
2022-09-01T18:32:12.178Z,57.35
2022-09-01T18:35:07.975Z,57.67
2022-09-01T18:37:51.582Z,58.07
2022-09-01T18:40:27.819Z,59.14
2022-09-01T18:43:09.414Z,58.48
2022-09-01T18:45:50.904Z,59.65
2022-09-01T18:48:30.796Z,59.59
2022-09-01T18:51:08.117Z,60.20
2022-09-01T18:53:46.047Z,59.88
2022-09-01T18:56:38.568Z,60.64
2022-09-01T18:59:19.384Z,59.44
2022-09-01T19:01:55.392Z,60.44
2022-09-01T19:04:31.473Z,61.14
2022-09-01T19:07:09.951Z,60.50
2022-09-01T19:09:45.745Z,61.93
2022-09-01T19:12:24.732Z,61.52
2022-09-01T19:15:05.411Z,62.29
2022-09-01T19:18:02.445Z,62.27
2022-09-01T19:20:40.638Z,62.41
2022-09-01T19:23:18.115Z,63.42
2022-09-01T19:25:47.539Z,63.27
2022-09-01T19:28:25.313Z,63.91
2022-09-01T19:31:04.927Z,63.85
2022-09-01T19:33:40.792Z,64.05
2022-09-01T19:36:17.844Z,64.63
2022-09-01T19:38:48.316Z,65.49
2022-09-01T19:41:25.257Z,65.01
2022-09-01T19:44:05.523Z,65.54
2022-09-01T19:46:42.187Z,65.90
2022-09-01T19:49:22.316Z,66.21
2022-09-01T19:51:59.643Z,66.67
2022-09-01T19:54:39.501Z,67.46
2022-09-01T19:57:18.993Z,68.18
2022-09-01T19:59:56.754Z,67.69
2022-09-01T20:02:31.037Z,68.46
2022-09-01T20:05:08.631Z,68.87
2022-09-01T20:07:44.113Z,68.93
2022-09-01T20:10:25.633Z,69.74
2022-09-01T20:13:10.932Z,70.16
2022-09-01T20:15:52.218Z,70.13
2022-09-01T20:18:29.822Z,70.09
2022-09-01T20:21:03.818Z,70.35
2022-09-01T20:23:38.736Z,70.55
2022-09-01T20:26:19.068Z,71.04
2022-09-01T20:28:55.786Z,71.62
2022-09-01T20:31:28.894Z,71.91
2022-09-01T20:34:05.851Z,72.03
2022-09-01T20:36:42.338Z,72.31
2022-09-01T20:39:36.218Z,71.99
2022-09-01T20:42:10.844Z,72.94
2022-09-01T20:44:46.605Z,73.70
2022-09-01T20:47:15.921Z,73.40
2022-09-01T20:49:45.627Z,73.28
2022-09-01T20:52:25.346Z,73.95
2022-09-01T20:55:00.605Z,74.35
2022-09-01T20:57:44.772Z,74.69
2022-09-01T21:00:19.848Z,75.26
2022-09-01T21:02:59.824Z,74.89
2022-09-01T21:05:42.752Z,75.47
2022-09-01T21:08:28.354Z,75.59
2022-09-01T21:11:01.919Z,76.10
2022-09-01T21:13:50.043Z,77.18
2022-09-01T21:16:32.100Z,76.91
2022-09-01T21:19:10.164Z,77.75
2022-09-01T21:21:46.469Z,78.08
2022-09-01T21:24:15.691Z,78.36
2022-09-01T21:26:46.006Z,79.13
2022-09-01T21:29:28.808Z,79.33
2022-09-01T21:31:59.062Z,79.66
2022-09-01T21:34:28.390Z,79.67
2022-09-01T21:36:57.569Z,80.95
2022-09-01T21:39:26.878Z,80.33
2022-09-01T21:41:56.366Z,80.95
2022-09-01T21:44:27.170Z,81.39
2022-09-01T21:46:56.951Z,81.14
2022-09-01T21:49:26.171Z,81.45
2022-09-01T21:51:58.400Z,81.90
2022-09-01T21:54:27.797Z,81.69
2022-09-01T21:56:57.026Z,81.42
2022-09-01T21:59:27.797Z,81.41
2022-09-01T22:01:57.031Z,82.82
2022-09-01T22:04:26.529Z,83.12
2022-09-01T22:06:55.843Z,83.46
2022-09-01T22:09:24.941Z,83.87
2022-09-01T22:11:54.045Z,83.93
2022-09-01T22:14:23.758Z,84.02
2022-09-01T22:16:54.368Z,84.86
2022-09-01T22:19:23.551Z,85.63
2022-09-01T22:21:53.534Z,85.75
2022-09-01T22:24:22.551Z,86.39
2022-09-01T22:26:51.825Z,85.32
2022-09-01T22:29:20.923Z,86.08
2022-09-01T22:31:50.119Z,86.84
2022-09-01T22:34:20.581Z,86.42
2022-09-01T22:36:50.432Z,86.89
2022-09-01T22:39:22.354Z,88.70
2022-09-01T22:41:55.408Z,88.53
2022-09-01T22:44:24.781Z,88.30
2022-09-01T22:46:53.979Z,86.98
2022-09-01T22:49:24.611Z,85.62
2022-09-01T22:51:53.838Z,85.93
2022-09-01T22:54:23.308Z,87.48
2022-09-01T22:56:52.658Z,87.90
2022-09-01T22:59:25.633Z,88.04
2022-09-01T23:01:55.549Z,88.30
2022-09-01T23:04:26.248Z,89.41
2022-09-01T23:06:55.728Z,88.23
2022-09-01T23:09:24.909Z,89.23
2022-09-01T23:11:54.030Z,89.26
2022-09-01T23:14:23.105Z,88.00
2022-09-01T23:16:52.834Z,87.96
2022-09-01T23:19:23.216Z,88.70
2022-09-01T23:21:54.258Z,88.74
2022-09-01T23:24:23.458Z,89.21
2022-09-01T23:26:52.714Z,89.12
2022-09-01T23:29:21.882Z,89.06
2022-09-01T23:31:50.983Z,88.08
2022-09-01T23:34:20.649Z,89.51
2022-09-01T23:36:49.690Z,88.61
2022-09-01T23:39:20.360Z,88.29
2022-09-01T23:41:49.480Z,87.24
2022-09-01T23:44:18.638Z,87.32
2022-09-01T23:46:48.533Z,87.70
2022-09-01T23:49:19.795Z,89.23
2022-09-01T23:51:50.086Z,89.85
2022-09-01T23:54:20.713Z,90.45
2022-09-01T23:56:49.858Z,90.43
2022-09-01T23:59:22.888Z,90.61
